sensor_id;sensor_type;location;lat;lon;timestamp;P1;durP1;ratioP1;P2;durP2;ratioP2
5999;SDS011;3028;49.468;7.694;2022-09-02T00:00:03;1999.90;;;999.90;;
5999;SDS011;3028;49.468;7.694;2022-09-02T00:02:08;1999.90;;;999.90;;
5999;SDS011;3028;49.468;7.694;2022-09-02T00:04:15;1999.90;;;999.90;;
5999;SDS011;3028;49.468;7.694;2022-09-02T00:06:18;1999.90;;;999.90;;
5999;SDS011;3028;49.468;7.694;2022-09-02T00:08:20;1999.90;;;999.90;;
5999;SDS011;3028;49.468;7.694;2022-09-02T00:10:22;1999.90;;;999.90;;
5999;SDS011;3028;49.468;7.694;2022-09-02T00:12:23;1999.90;;;999.90;;
5999;SDS011;3028;49.468;7.694;2022-09-02T00:14:28;1999.90;;;999.90;;
5999;SDS011;3028;49.468;7.694;2022-09-02T00:16:31;1999.90;;;999.90;;
5999;SDS011;3028;49.468;7.694;2022-09-02T00:18:33;1999.90;;;999.90;;
5999;SDS011;3028;49.468;7.694;2022-09-02T00:20:36;1999.90;;;999.90;;
5999;SDS011;3028;49.468;7.694;2022-09-02T00:22:38;1999.90;;;999.90;;
5999;SDS011;3028;49.468;7.694;2022-09-02T00:24:39;1999.90;;;999.90;;
5999;SDS011;3028;49.468;7.694;2022-09-02T00:26:41;1999.90;;;999.90;;
5999;SDS011;3028;49.468;7.694;2022-09-02T00:28:44;1999.90;;;999.90;;
5999;SDS011;3028;49.468;7.694;2022-09-02T00:30:56;1999.90;;;999.90;;
5999;SDS011;3028;49.468;7.694;2022-09-02T00:32:58;1999.90;;;999.90;;
5999;SDS011;3028;49.468;7.694;2022-09-02T00:35:00;1999.90;;;999.90;;
5999;SDS011;3028;49.468;7.694;2022-09-02T00:37:02;1999.90;;;999.90;;
5999;SDS011;3028;49.468;7.694;2022-09-02T00:39:04;1999.90;;;999.90;;
5999;SDS011;3028;49.468;7.694;2022-09-02T00:41:09;1999.90;;;999.90;;
5999;SDS011;3028;49.468;7.694;2022-09-02T00:43:11;1999.90;;;999.90;;
5999;SDS011;3028;49.468;7.694;2022-09-02T00:45:23;1999.90;;;999.90;;
5999;SDS011;3028;49.468;7.694;2022-09-02T00:47:25;1999.90;;;999.90;;
5999;SDS011;3028;49.468;7.694;2022-09-02T00:49:31;1999.90;;;999.90;;
5999;SDS011;3028;49.468;7.694;2022-09-02T00:51:54;1999.90;;;999.90;;
5999;SDS011;3028;49.468;7.694;2022-09-02T00:53:59;1999.90;;;999.90;;
5999;SDS011;3028;49.468;7.694;2022-09-02T00:56:01;1999.90;;;999.90;;
5999;SDS011;3028;49.468;7.694;2022-09-02T00:58:05;1999.90;;;999.90;;
5999;SDS011;3028;49.468;7.694;2022-09-02T01:00:12;1999.90;;;999.90;;
5999;SDS011;3028;49.468;7.694;2022-09-02T01:02:19;1999.90;;;999.90;;
5999;SDS011;3028;49.468;7.694;2022-09-02T01:04:24;1999.90;;;999.90;;
5999;SDS011;3028;49.468;7.694;2022-09-02T01:06:26;1999.90;;;999.90;;
5999;SDS011;3028;49.468;7.694;2022-09-02T01:08:33;1999.90;;;999.90;;
5999;SDS011;3028;49.468;7.694;2022-09-02T01:10:36;1999.90;;;999.90;;
5999;SDS011;3028;49.468;7.694;2022-09-02T01:12:38;1999.90;;;999.90;;
5999;SDS011;3028;49.468;7.694;2022-09-02T01:14:40;1999.90;;;999.90;;
5999;SDS011;3028;49.468;7.694;2022-09-02T01:16:45;1999.90;;;999.90;;
5999;SDS011;3028;49.468;7.694;2022-09-02T01:18:50;1999.90;;;999.90;;
5999;SDS011;3028;49.468;7.694;2022-09-02T01:20:55;1999.90;;;999.90;;
5999;SDS011;3028;49.468;7.694;2022-09-02T01:22:58;1999.90;;;999.90;;
5999;SDS011;3028;49.468;7.694;2022-09-02T01:25:05;1999.90;;;999.90;;
5999;SDS011;3028;49.468;7.694;2022-09-02T01:27:16;1999.90;;;999.90;;
5999;SDS011;3028;49.468;7.694;2022-09-02T01:29:20;1999.90;;;999.90;;
5999;SDS011;3028;49.468;7.694;2022-09-02T01:31:24;1999.90;;;999.90;;
5999;SDS011;3028;49.468;7.694;2022-09-02T01:33:25;1999.90;;;999.90;;
5999;SDS011;3028;49.468;7.694;2022-09-02T01:35:29;1999.90;;;999.90;;
5999;SDS011;3028;49.468;7.694;2022-09-02T01:37:31;1999.90;;;999.90;;
5999;SDS011;3028;49.468;7.694;2022-09-02T01:39:33;1999.90;;;999.90;;
5999;SDS011;3028;49.468;7.694;2022-09-02T01:41:35;1999.90;;;999.90;;
5999;SDS011;3028;49.468;7.694;2022-09-02T01:43:37;1999.90;;;999.90;;
5999;SDS011;3028;49.468;7.694;2022-09-02T01:45:41;1999.90;;;999.90;;
5999;SDS011;3028;49.468;7.694;2022-09-02T01:47:43;1999.90;;;999.90;;
5999;SDS011;3028;49.468;7.694;2022-09-02T01:49:45;1999.90;;;999.90;;
5999;SDS011;3028;49.468;7.694;2022-09-02T01:51:47;1999.90;;;999.90;;
5999;SDS011;3028;49.468;7.694;2022-09-02T01:53:49;1999.90;;;999.90;;
5999;SDS011;3028;49.468;7.694;2022-09-02T01:55:51;1999.90;;;999.90;;
5999;SDS011;3028;49.468;7.694;2022-09-02T01:57:53;1999.90;;;999.90;;
5999;SDS011;3028;49.468;7.694;2022-09-02T01:59:55;1999.90;;;999.90;;
5999;SDS011;3028;49.468;7.694;2022-09-02T02:01:56;1999.90;;;999.90;;
5999;SDS011;3028;49.468;7.694;2022-09-02T02:03:58;1999.90;;;999.90;;
5999;SDS011;3028;49.468;7.694;2022-09-02T02:06:06;1999.90;;;999.90;;
5999;SDS011;3028;49.468;7.694;2022-09-02T02:08:09;1999.90;;;999.90;;
5999;SDS011;3028;49.468;7.694;2022-09-02T02:10:12;1999.90;;;999.90;;
5999;SDS011;3028;49.468;7.694;2022-09-02T02:12:15;1999.90;;;999.90;;
5999;SDS011;3028;49.468;7.694;2022-09-02T02:14:17;1999.90;;;999.90;;
5999;SDS011;3028;49.468;7.694;2022-09-02T02:16:19;1999.90;;;999.90;;
5999;SDS011;3028;49.468;7.694;2022-09-02T02:18:21;1999.90;;;999.90;;
5999;SDS011;3028;49.468;7.694;2022-09-02T02:20:23;1999.90;;;999.90;;
5999;SDS011;3028;49.468;7.694;2022-09-02T02:22:27;1999.90;;;999.90;;
5999;SDS011;3028;49.468;7.694;2022-09-02T02:24:29;1999.90;;;999.90;;
5999;SDS011;3028;49.468;7.694;2022-09-02T02:26:31;1999.90;;;999.90;;
5999;SDS011;3028;49.468;7.694;2022-09-02T02:28:33;1999.90;;;999.90;;
5999;SDS011;3028;49.468;7.694;2022-09-02T02:30:35;1999.90;;;999.90;;
5999;SDS011;3028;49.468;7.694;2022-09-02T02:32:37;1999.90;;;999.90;;
5999;SDS011;3028;49.468;7.694;2022-09-02T02:34:39;1999.90;;;999.90;;
5999;SDS011;3028;49.468;7.694;2022-09-02T02:36:41;1999.90;;;999.90;;
5999;SDS011;3028;49.468;7.694;2022-09-02T02:38:43;1999.90;;;999.90;;
5999;SDS011;3028;49.468;7.694;2022-09-02T02:40:46;1999.90;;;999.90;;
5999;SDS011;3028;49.468;7.694;2022-09-02T02:42:48;1999.90;;;999.90;;
5999;SDS011;3028;49.468;7.694;2022-09-02T02:44:53;1999.90;;;999.90;;
5999;SDS011;3028;49.468;7.694;2022-09-02T02:46:55;1999.90;;;999.90;;
5999;SDS011;3028;49.468;7.694;2022-09-02T02:49:00;1999.90;;;999.90;;
5999;SDS011;3028;49.468;7.694;2022-09-02T02:51:03;1999.90;;;999.90;;
5999;SDS011;3028;49.468;7.694;2022-09-02T02:53:05;1999.90;;;999.90;;
5999;SDS011;3028;49.468;7.694;2022-09-02T02:55:08;1999.90;;;999.90;;
5999;SDS011;3028;49.468;7.694;2022-09-02T02:57:11;1999.90;;;999.90;;
5999;SDS011;3028;49.468;7.694;2022-09-02T02:59:14;1999.90;;;999.90;;
5999;SDS011;3028;49.468;7.694;2022-09-02T03:01:15;1999.90;;;999.90;;
5999;SDS011;3028;49.468;7.694;2022-09-02T03:03:17;1999.90;;;999.90;;
5999;SDS011;3028;49.468;7.694;2022-09-02T03:05:20;1999.90;;;999.90;;
5999;SDS011;3028;49.468;7.694;2022-09-02T03:07:21;1999.90;;;999.90;;
5999;SDS011;3028;49.468;7.694;2022-09-02T03:09:23;1999.90;;;999.90;;
5999;SDS011;3028;49.468;7.694;2022-09-02T03:11:25;1999.90;;;999.90;;
5999;SDS011;3028;49.468;7.694;2022-09-02T03:13:30;1999.90;;;999.90;;
5999;SDS011;3028;49.468;7.694;2022-09-02T03:15:34;1999.90;;;999.90;;
5999;SDS011;3028;49.468;7.694;2022-09-02T03:17:37;1999.90;;;999.90;;
5999;SDS011;3028;49.468;7.694;2022-09-02T03:19:38;1999.90;;;999.90;;
5999;SDS011;3028;49.468;7.694;2022-09-02T03:21:40;1999.90;;;999.90;;
5999;SDS011;3028;49.468;7.694;2022-09-02T03:23:43;1999.90;;;999.90;;
5999;SDS011;3028;49.468;7.694;2022-09-02T03:25:45;1999.90;;;999.90;;
5999;SDS011;3028;49.468;7.694;2022-09-02T03:27:47;1999.90;;;999.90;;
5999;SDS011;3028;49.468;7.694;2022-09-02T03:29:50;1999.90;;;999.90;;
5999;SDS011;3028;49.468;7.694;2022-09-02T03:31:51;1999.90;;;999.90;;
5999;SDS011;3028;49.468;7.694;2022-09-02T03:33:54;1999.90;;;999.90;;
5999;SDS011;3028;49.468;7.694;2022-09-02T03:35:56;1999.90;;;999.90;;
5999;SDS011;3028;49.468;7.694;2022-09-02T03:37:58;1999.90;;;999.90;;
5999;SDS011;3028;49.468;7.694;2022-09-02T03:40:04;1999.90;;;999.90;;
5999;SDS011;3028;49.468;7.694;2022-09-02T03:42:08;1999.90;;;999.90;;
5999;SDS011;3028;49.468;7.694;2022-09-02T03:44:20;1999.90;;;999.90;;
5999;SDS011;3028;49.468;7.694;2022-09-02T03:46:21;1999.90;;;999.90;;
5999;SDS011;3028;49.468;7.694;2022-09-02T03:48:23;1999.90;;;999.90;;
5999;SDS011;3028;49.468;7.694;2022-09-02T03:50:27;1999.90;;;999.90;;
5999;SDS011;3028;49.468;7.694;2022-09-02T03:52:31;1999.90;;;999.90;;
5999;SDS011;3028;49.468;7.694;2022-09-02T03:54:33;1999.90;;;999.90;;
5999;SDS011;3028;49.468;7.694;2022-09-02T03:56:35;1999.90;;;999.90;;
5999;SDS011;3028;49.468;7.694;2022-09-02T03:58:37;1999.90;;;999.90;;
5999;SDS011;3028;49.468;7.694;2022-09-02T04:00:41;1999.90;;;999.90;;
5999;SDS011;3028;49.468;7.694;2022-09-02T04:02:44;1999.90;;;999.90;;
5999;SDS011;3028;49.468;7.694;2022-09-02T04:04:50;1999.90;;;999.90;;
5999;SDS011;3028;49.468;7.694;2022-09-02T04:06:51;1999.90;;;999.90;;
5999;SDS011;3028;49.468;7.694;2022-09-02T04:08:53;1999.90;;;999.90;;
5999;SDS011;3028;49.468;7.694;2022-09-02T04:10:56;1999.90;;;999.90;;
5999;SDS011;3028;49.468;7.694;2022-09-02T04:12:57;1999.90;;;999.90;;
5999;SDS011;3028;49.468;7.694;2022-09-02T04:14:59;1999.90;;;999.90;;
5999;SDS011;3028;49.468;7.694;2022-09-02T04:17:01;1999.90;;;999.90;;
5999;SDS011;3028;49.468;7.694;2022-09-02T04:19:03;1999.90;;;999.90;;
5999;SDS011;3028;49.468;7.694;2022-09-02T04:21:06;1999.90;;;999.90;;
5999;SDS011;3028;49.468;7.694;2022-09-02T04:23:08;1999.90;;;999.90;;
5999;SDS011;3028;49.468;7.694;2022-09-02T04:25:10;1999.90;;;999.90;;
5999;SDS011;3028;49.468;7.694;2022-09-02T04:27:12;1999.90;;;999.90;;
5999;SDS011;3028;49.468;7.694;2022-09-02T04:29:14;1999.90;;;999.90;;
5999;SDS011;3028;49.468;7.694;2022-09-02T04:31:18;1999.90;;;999.90;;
5999;SDS011;3028;49.468;7.694;2022-09-02T04:33:22;1999.90;;;999.90;;
5999;SDS011;3028;49.468;7.694;2022-09-02T04:35:23;1999.90;;;999.90;;
5999;SDS011;3028;49.468;7.694;2022-09-02T04:37:25;1999.90;;;999.90;;
5999;SDS011;3028;49.468;7.694;2022-09-02T04:39:27;1999.90;;;999.90;;
5999;SDS011;3028;49.468;7.694;2022-09-02T04:41:29;1999.90;;;999.90;;
5999;SDS011;3028;49.468;7.694;2022-09-02T04:43:31;1999.90;;;999.90;;
5999;SDS011;3028;49.468;7.694;2022-09-02T04:45:33;1999.90;;;999.90;;
5999;SDS011;3028;49.468;7.694;2022-09-02T04:47:35;1999.90;;;999.90;;
5999;SDS011;3028;49.468;7.694;2022-09-02T04:49:36;1999.90;;;999.90;;
5999;SDS011;3028;49.468;7.694;2022-09-02T04:51:38;1999.90;;;999.90;;
5999;SDS011;3028;49.468;7.694;2022-09-02T04:53:40;1999.90;;;999.90;;
5999;SDS011;3028;49.468;7.694;2022-09-02T04:55:42;1999.90;;;999.90;;
5999;SDS011;3028;49.468;7.694;2022-09-02T04:57:44;1999.90;;;999.90;;
5999;SDS011;3028;49.468;7.694;2022-09-02T04:59:45;1999.90;;;999.90;;
5999;SDS011;3028;49.468;7.694;2022-09-02T05:01:47;1999.90;;;999.90;;
5999;SDS011;3028;49.468;7.694;2022-09-02T05:03:50;1999.90;;;999.90;;
5999;SDS011;3028;49.468;7.694;2022-09-02T05:06:00;1999.90;;;999.90;;
5999;SDS011;3028;49.468;7.694;2022-09-02T05:08:04;1999.90;;;999.90;;
5999;SDS011;3028;49.468;7.694;2022-09-02T05:10:07;1999.90;;;999.90;;
5999;SDS011;3028;49.468;7.694;2022-09-02T05:12:09;1999.90;;;999.90;;
5999;SDS011;3028;49.468;7.694;2022-09-02T05:14:11;1999.90;;;999.90;;
5999;SDS011;3028;49.468;7.694;2022-09-02T05:16:14;1999.90;;;999.90;;
5999;SDS011;3028;49.468;7.694;2022-09-02T05:18:17;1999.90;;;999.90;;
5999;SDS011;3028;49.468;7.694;2022-09-02T05:20:19;1999.90;;;999.90;;
5999;SDS011;3028;49.468;7.694;2022-09-02T05:22:20;1999.90;;;999.90;;
5999;SDS011;3028;49.468;7.694;2022-09-02T05:24:22;1999.90;;;999.90;;
5999;SDS011;3028;49.468;7.694;2022-09-02T05:26:27;1999.90;;;999.90;;
5999;SDS011;3028;49.468;7.694;2022-09-02T05:28:28;1999.90;;;999.90;;
5999;SDS011;3028;49.468;7.694;2022-09-02T05:30:30;1999.90;;;999.90;;
5999;SDS011;3028;49.468;7.694;2022-09-02T05:32:33;1999.90;;;999.90;;
5999;SDS011;3028;49.468;7.694;2022-09-02T05:34:38;1999.90;;;999.90;;
5999;SDS011;3028;49.468;7.694;2022-09-02T05:36:40;1999.90;;;999.90;;
5999;SDS011;3028;49.468;7.694;2022-09-02T05:38:41;1999.90;;;999.90;;
5999;SDS011;3028;49.468;7.694;2022-09-02T05:40:44;1999.90;;;999.90;;
5999;SDS011;3028;49.468;7.694;2022-09-02T05:42:45;1999.90;;;999.90;;
5999;SDS011;3028;49.468;7.694;2022-09-02T05:44:49;1999.90;;;999.90;;
5999;SDS011;3028;49.468;7.694;2022-09-02T05:46:50;1999.90;;;999.90;;
5999;SDS011;3028;49.468;7.694;2022-09-02T05:48:52;1999.90;;;999.90;;
5999;SDS011;3028;49.468;7.694;2022-09-02T05:51:07;1999.90;;;999.90;;
5999;SDS011;3028;49.468;7.694;2022-09-02T05:53:09;1999.90;;;999.90;;
5999;SDS011;3028;49.468;7.694;2022-09-02T05:55:15;1999.90;;;999.90;;
5999;SDS011;3028;49.468;7.694;2022-09-02T05:57:17;1999.90;;;999.90;;
5999;SDS011;3028;49.468;7.694;2022-09-02T05:59:19;1999.90;;;999.90;;
5999;SDS011;3028;49.468;7.694;2022-09-02T06:01:22;1999.90;;;999.90;;
5999;SDS011;3028;49.468;7.694;2022-09-02T06:03:23;1999.90;;;999.90;;
5999;SDS011;3028;49.468;7.694;2022-09-02T06:05:25;1999.90;;;999.90;;
5999;SDS011;3028;49.468;7.694;2022-09-02T06:07:27;1999.90;;;999.90;;
5999;SDS011;3028;49.468;7.694;2022-09-02T06:09:30;1999.90;;;999.90;;
5999;SDS011;3028;49.468;7.694;2022-09-02T06:11:31;1999.90;;;999.90;;
5999;SDS011;3028;49.468;7.694;2022-09-02T06:13:34;1999.90;;;999.90;;
5999;SDS011;3028;49.468;7.694;2022-09-02T06:15:41;1999.90;;;999.90;;
5999;SDS011;3028;49.468;7.694;2022-09-02T06:17:44;1999.90;;;999.90;;
5999;SDS011;3028;49.468;7.694;2022-09-02T06:19:46;1999.90;;;999.90;;
5999;SDS011;3028;49.468;7.694;2022-09-02T06:21:53;1999.90;;;999.90;;
5999;SDS011;3028;49.468;7.694;2022-09-02T06:23:58;1999.90;;;999.90;;
5999;SDS011;3028;49.468;7.694;2022-09-02T06:26:00;1999.90;;;999.90;;
5999;SDS011;3028;49.468;7.694;2022-09-02T06:28:02;1999.90;;;999.90;;
5999;SDS011;3028;49.468;7.694;2022-09-02T06:30:07;1999.90;;;999.90;;
5999;SDS011;3028;49.468;7.694;2022-09-02T06:35:35;1999.90;;;999.90;;
5999;SDS011;3028;49.468;7.694;2022-09-02T06:37:42;1999.90;;;999.90;;
5999;SDS011;3028;49.468;7.694;2022-09-02T06:39:43;1999.90;;;999.90;;
5999;SDS011;3028;49.468;7.694;2022-09-02T06:41:47;1999.90;;;999.90;;
5999;SDS011;3028;49.468;7.694;2022-09-02T06:43:49;1999.90;;;999.90;;
5999;SDS011;3028;49.468;7.694;2022-09-02T06:45:51;1999.90;;;999.90;;
5999;SDS011;3028;49.468;7.694;2022-09-02T06:47:52;1999.90;;;999.90;;
5999;SDS011;3028;49.468;7.694;2022-09-02T06:49:54;1999.90;;;999.90;;
5999;SDS011;3028;49.468;7.694;2022-09-02T06:51:56;1999.90;;;999.90;;
5999;SDS011;3028;49.468;7.694;2022-09-02T06:53:59;1999.90;;;999.90;;
5999;SDS011;3028;49.468;7.694;2022-09-02T06:56:04;1999.90;;;999.90;;
5999;SDS011;3028;49.468;7.694;2022-09-02T06:58:07;1999.90;;;999.90;;
5999;SDS011;3028;49.468;7.694;2022-09-02T07:00:09;1999.90;;;999.90;;
5999;SDS011;3028;49.468;7.694;2022-09-02T07:02:11;1999.90;;;999.90;;
5999;SDS011;3028;49.468;7.694;2022-09-02T07:04:14;1999.90;;;999.90;;
5999;SDS011;3028;49.468;7.694;2022-09-02T07:06:36;1787.55;;;879.28;;
5999;SDS011;3028;49.468;7.694;2022-09-02T07:08:41;1999.90;;;999.90;;
5999;SDS011;3028;49.468;7.694;2022-09-02T07:10:44;1999.90;;;999.90;;
5999;SDS011;3028;49.468;7.694;2022-09-02T07:12:46;1999.90;;;999.90;;
5999;SDS011;3028;49.468;7.694;2022-09-02T07:14:47;1999.90;;;999.90;;
5999;SDS011;3028;49.468;7.694;2022-09-02T07:16:50;1999.90;;;999.90;;
5999;SDS011;3028;49.468;7.694;2022-09-02T07:18:53;1999.90;;;999.90;;
5999;SDS011;3028;49.468;7.694;2022-09-02T07:20:55;1999.90;;;999.90;;
5999;SDS011;3028;49.468;7.694;2022-09-02T07:22:57;1999.90;;;999.90;;
5999;SDS011;3028;49.468;7.694;2022-09-02T07:24:58;1999.90;;;999.90;;
5999;SDS011;3028;49.468;7.694;2022-09-02T07:27:00;1999.90;;;999.90;;
5999;SDS011;3028;49.468;7.694;2022-09-02T07:29:02;1999.90;;;999.90;;
5999;SDS011;3028;49.468;7.694;2022-09-02T07:31:07;1999.90;;;999.90;;
5999;SDS011;3028;49.468;7.694;2022-09-02T07:33:11;1999.90;;;999.90;;
5999;SDS011;3028;49.468;7.694;2022-09-02T07:35:14;1999.90;;;999.90;;
5999;SDS011;3028;49.468;7.694;2022-09-02T07:37:16;1999.90;;;999.90;;
5999;SDS011;3028;49.468;7.694;2022-09-02T07:39:18;1999.90;;;999.90;;
5999;SDS011;3028;49.468;7.694;2022-09-02T07:41:19;1999.90;;;999.90;;
5999;SDS011;3028;49.468;7.694;2022-09-02T07:43:22;1999.90;;;999.90;;
5999;SDS011;3028;49.468;7.694;2022-09-02T07:45:24;1999.90;;;999.90;;
5999;SDS011;3028;49.468;7.694;2022-09-02T07:47:26;1999.90;;;999.90;;
5999;SDS011;3028;49.468;7.694;2022-09-02T07:49:27;1999.90;;;999.90;;
5999;SDS011;3028;49.468;7.694;2022-09-02T07:51:49;1999.90;;;999.90;;
5999;SDS011;3028;49.468;7.694;2022-09-02T07:53:51;1999.90;;;999.90;;
5999;SDS011;3028;49.468;7.694;2022-09-02T07:55:53;1999.90;;;999.90;;
5999;SDS011;3028;49.468;7.694;2022-09-02T07:57:58;1999.90;;;999.90;;
5999;SDS011;3028;49.468;7.694;2022-09-02T08:00:00;1999.90;;;999.90;;
5999;SDS011;3028;49.468;7.694;2022-09-02T08:02:02;1999.90;;;999.90;;
5999;SDS011;3028;49.468;7.694;2022-09-02T08:04:04;1999.90;;;999.90;;
5999;SDS011;3028;49.468;7.694;2022-09-02T08:06:06;1999.90;;;999.90;;
5999;SDS011;3028;49.468;7.694;2022-09-02T08:08:09;1999.90;;;999.90;;
5999;SDS011;3028;49.468;7.694;2022-09-02T08:10:11;1999.90;;;999.90;;
5999;SDS011;3028;49.468;7.694;2022-09-02T08:12:13;1999.90;;;999.90;;
5999;SDS011;3028;49.468;7.694;2022-09-02T08:14:21;1999.90;;;999.90;;
5999;SDS011;3028;49.468;7.694;2022-09-02T08:16:26;1999.90;;;999.90;;
5999;SDS011;3028;49.468;7.694;2022-09-02T08:18:29;1999.90;;;999.90;;
5999;SDS011;3028;49.468;7.694;2022-09-02T08:20:31;1999.90;;;999.90;;
5999;SDS011;3028;49.468;7.694;2022-09-02T08:22:33;1999.90;;;999.90;;
5999;SDS011;3028;49.468;7.694;2022-09-02T08:24:36;1999.90;;;999.90;;
5999;SDS011;3028;49.468;7.694;2022-09-02T08:26:38;1999.90;;;999.90;;
5999;SDS011;3028;49.468;7.694;2022-09-02T08:28:39;1999.90;;;999.90;;
5999;SDS011;3028;49.468;7.694;2022-09-02T08:30:41;1999.90;;;999.90;;
5999;SDS011;3028;49.468;7.694;2022-09-02T08:32:43;1999.90;;;999.90;;
5999;SDS011;3028;49.468;7.694;2022-09-02T08:34:44;1999.90;;;999.90;;
5999;SDS011;3028;49.468;7.694;2022-09-02T08:36:46;1999.90;;;999.90;;
5999;SDS011;3028;49.468;7.694;2022-09-02T08:38:57;1999.90;;;999.90;;
5999;SDS011;3028;49.468;7.694;2022-09-02T08:40:59;1999.90;;;999.90;;
5999;SDS011;3028;49.468;7.694;2022-09-02T08:43:01;1999.90;;;999.90;;
5999;SDS011;3028;49.468;7.694;2022-09-02T08:47:28;1999.90;;;999.90;;
5999;SDS011;3028;49.468;7.694;2022-09-02T08:49:33;1999.90;;;999.90;;
5999;SDS011;3028;49.468;7.694;2022-09-02T08:51:42;1999.90;;;999.90;;
5999;SDS011;3028;49.468;7.694;2022-09-02T08:53:56;1999.90;;;999.90;;
5999;SDS011;3028;49.468;7.694;2022-09-02T08:56:03;1999.90;;;999.90;;
5999;SDS011;3028;49.468;7.694;2022-09-02T08:58:06;1999.90;;;999.90;;
5999;SDS011;3028;49.468;7.694;2022-09-02T09:00:08;1999.90;;;999.90;;
5999;SDS011;3028;49.468;7.694;2022-09-02T09:18:38;1999.90;;;999.90;;
5999;SDS011;3028;49.468;7.694;2022-09-02T09:20:43;1919.85;;;999.90;;
5999;SDS011;3028;49.468;7.694;2022-09-02T09:22:47;1910.80;;;999.90;;
5999;SDS011;3028;49.468;7.694;2022-09-02T09:24:50;1981.95;;;999.90;;
5999;SDS011;3028;49.468;7.694;2022-09-02T09:26:52;1979.72;;;999.90;;
5999;SDS011;3028;49.468;7.694;2022-09-02T09:28:55;1999.90;;;999.90;;
5999;SDS011;3028;49.468;7.694;2022-09-02T09:31:00;1999.90;;;999.90;;
5999;SDS011;3028;49.468;7.694;2022-09-02T09:33:01;1999.90;;;999.90;;
5999;SDS011;3028;49.468;7.694;2022-09-02T09:35:05;1971.22;;;999.90;;
5999;SDS011;3028;49.468;7.694;2022-09-02T09:37:08;1999.90;;;999.90;;
5999;SDS011;3028;49.468;7.694;2022-09-02T09:39:16;1966.35;;;999.90;;
5999;SDS011;3028;49.468;7.694;2022-09-02T09:41:20;1993.95;;;999.90;;
5999;SDS011;3028;49.468;7.694;2022-09-02T09:43:27;1997.40;;;999.90;;
5999;SDS011;3028;49.468;7.694;2022-09-02T09:47:34;1993.53;;;999.90;;
5999;SDS011;3028;49.468;7.694;2022-09-02T09:49:36;1966.60;;;999.90;;
5999;SDS011;3028;49.468;7.694;2022-09-02T09:51:50;1945.65;;;999.90;;
5999;SDS011;3028;49.468;7.694;2022-09-02T09:54:13;1899.80;;;999.90;;
5999;SDS011;3028;49.468;7.694;2022-09-02T09:58:18;1999.90;;;999.90;;
5999;SDS011;3028;49.468;7.694;2022-09-02T10:00:28;1864.10;;;999.90;;
5999;SDS011;3028;49.468;7.694;2022-09-02T10:02:32;1921.90;;;999.90;;
5999;SDS011;3028;49.468;7.694;2022-09-02T10:04:36;1914.68;;;999.90;;
5999;SDS011;3028;49.468;7.694;2022-09-02T10:06:45;1866.95;;;999.90;;
5999;SDS011;3028;49.468;7.694;2022-09-02T10:08:50;1964.22;;;999.90;;
5999;SDS011;3028;49.468;7.694;2022-09-02T10:15:43;1875.85;;;999.90;;
5999;SDS011;3028;49.468;7.694;2022-09-02T10:20:23;1999.90;;;999.90;;
5999;SDS011;3028;49.468;7.694;2022-09-02T10:25:20;1964.55;;;999.90;;
5999;SDS011;3028;49.468;7.694;2022-09-02T10:29:51;1865.20;;;999.90;;
5999;SDS011;3028;49.468;7.694;2022-09-02T10:32:03;1877.28;;;999.90;;
5999;SDS011;3028;49.468;7.694;2022-09-02T10:36:48;1842.90;;;999.90;;
5999;SDS011;3028;49.468;7.694;2022-09-02T10:39:15;1840.03;;;999.90;;
5999;SDS011;3028;49.468;7.694;2022-09-02T10:46:07;1837.75;;;999.90;;
5999;SDS011;3028;49.468;7.694;2022-09-02T10:58:06;1769.70;;;999.90;;
5999;SDS011;3028;49.468;7.694;2022-09-02T11:02:21;1999.90;;;999.90;;
5999;SDS011;3028;49.468;7.694;2022-09-02T11:04:32;1934.15;;;999.90;;
5999;SDS011;3028;49.468;7.694;2022-09-02T11:06:41;1901.63;;;999.90;;
5999;SDS011;3028;49.468;7.694;2022-09-02T11:09:08;1797.88;;;999.90;;
5999;SDS011;3028;49.468;7.694;2022-09-02T11:11:18;1833.88;;;999.90;;
5999;SDS011;3028;49.468;7.694;2022-09-02T11:13:25;1793.63;;;999.90;;
5999;SDS011;3028;49.468;7.694;2022-09-02T11:15:47;1846.10;;;999.90;;
5999;SDS011;3028;49.468;7.694;2022-09-02T11:18:05;1829.07;;;999.90;;
5999;SDS011;3028;49.468;7.694;2022-09-02T11:24:54;1750.75;;;999.90;;
5999;SDS011;3028;49.468;7.694;2022-09-02T11:27:07;1784.07;;;999.90;;
5999;SDS011;3028;49.468;7.694;2022-09-02T11:29:43;1737.72;;;999.90;;
5999;SDS011;3028;49.468;7.694;2022-09-02T11:32:04;1790.88;;;999.90;;
5999;SDS011;3028;49.468;7.694;2022-09-02T11:36:22;1926.40;;;999.90;;
5999;SDS011;3028;49.468;7.694;2022-09-02T11:41:01;1844.50;;;999.90;;
5999;SDS011;3028;49.468;7.694;2022-09-02T11:55:22;1748.82;;;999.90;;
5999;SDS011;3028;49.468;7.694;2022-09-02T11:57:26;1745.97;;;999.90;;
5999;SDS011;3028;49.468;7.694;2022-09-02T12:01:54;1734.05;;;999.90;;
5999;SDS011;3028;49.468;7.694;2022-09-02T12:04:01;1824.80;;;999.90;;
5999;SDS011;3028;49.468;7.694;2022-09-02T12:09:13;1693.22;;;999.90;;
5999;SDS011;3028;49.468;7.694;2022-09-02T12:11:55;1823.95;;;999.90;;
5999;SDS011;3028;49.468;7.694;2022-09-02T12:13:57;1863.55;;;999.90;;
5999;SDS011;3028;49.468;7.694;2022-09-02T12:18:26;1757.25;;;999.90;;
5999;SDS011;3028;49.468;7.694;2022-09-02T12:22:39;1773.40;;;999.90;;
5999;SDS011;3028;49.468;7.694;2022-09-02T12:29:11;1776.97;;;999.90;;
5999;SDS011;3028;49.468;7.694;2022-09-02T12:33:47;1949.53;;;999.90;;
5999;SDS011;3028;49.468;7.694;2022-09-02T12:35:52;1847.63;;;999.90;;
5999;SDS011;3028;49.468;7.694;2022-09-02T12:37:55;1780.05;;;999.90;;
5999;SDS011;3028;49.468;7.694;2022-09-02T12:39:58;1787.18;;;999.90;;
5999;SDS011;3028;49.468;7.694;2022-09-02T12:48:38;1816.47;;;999.90;;
5999;SDS011;3028;49.468;7.694;2022-09-02T12:52:45;1798.88;;;999.90;;
5999;SDS011;3028;49.468;7.694;2022-09-02T12:54:49;1951.00;;;999.90;;
5999;SDS011;3028;49.468;7.694;2022-09-02T12:56:50;1835.43;;;999.90;;
5999;SDS011;3028;49.468;7.694;2022-09-02T12:58:53;1779.43;;;999.90;;
5999;SDS011;3028;49.468;7.694;2022-09-02T13:08:38;1911.18;;;999.90;;
5999;SDS011;3028;49.468;7.694;2022-09-02T13:31:22;1942.55;;;999.90;;
5999;SDS011;3028;49.468;7.694;2022-09-02T13:33:25;1909.25;;;999.90;;
5999;SDS011;3028;49.468;7.694;2022-09-02T13:35:27;1892.22;;;999.90;;
5999;SDS011;3028;49.468;7.694;2022-09-02T13:37:42;1837.20;;;999.90;;
5999;SDS011;3028;49.468;7.694;2022-09-02T13:39:45;1809.05;;;999.90;;
5999;SDS011;3028;49.468;7.694;2022-09-02T13:41:47;1794.75;;;999.90;;
5999;SDS011;3028;49.468;7.694;2022-09-02T13:44:03;1825.13;;;999.90;;
5999;SDS011;3028;49.468;7.694;2022-09-02T13:46:06;1822.15;;;999.90;;
5999;SDS011;3028;49.468;7.694;2022-09-02T13:50:19;1822.97;;;999.90;;
5999;SDS011;3028;49.468;7.694;2022-09-02T13:52:22;1755.03;;;999.90;;
5999;SDS011;3028;49.468;7.694;2022-09-02T13:54:45;1842.53;;;999.90;;
5999;SDS011;3028;49.468;7.694;2022-09-02T13:56:48;1822.65;;;999.90;;
5999;SDS011;3028;49.468;7.694;2022-09-02T13:58:51;1883.10;;;999.90;;
5999;SDS011;3028;49.468;7.694;2022-09-02T14:00:54;1802.95;;;999.90;;
5999;SDS011;3028;49.468;7.694;2022-09-02T14:03:17;1836.50;;;999.90;;
5999;SDS011;3028;49.468;7.694;2022-09-02T14:05:21;1838.63;;;999.90;;
5999;SDS011;3028;49.468;7.694;2022-09-02T14:07:57;1864.22;;;999.90;;
5999;SDS011;3028;49.468;7.694;2022-09-02T14:09:52;1837.65;;;999.90;;
5999;SDS011;3028;49.468;7.694;2022-09-02T14:11:54;1999.90;;;999.90;;